Keswick, United Kingdom

2:13 PM GMT on February 13, 2016 (GMT +0000)
Keswick - Cumbria | | Change Station
CLOSE
Current Station
Personal Weather Station
Location: Keswick,
Elevation: 312 ft
Nearby Weather Stations

Elev 312 ft 54.60 °N, 3.13 °W | Updated 13 minutes ago

Overcast
Overcast
40.6 °F
Feels Like 41 °F
N
0.0
Wind Variable Wind from North
Gusts 0.0 mph

Today
High -- | Low -- °F
--% Chance of Precip.
Yesterday
High -- | Low -- °F
Precip. -- in
Pressure 29.24 in
Visibility 1.9 miles
Clouds Mostly Cloudy 300 ft
Mostly Cloudy 1300 ft
Windchill 41 °F
Dew Point 32 °F
Humidity 71%
Rainfall 0.00 in
Snow Depth Not available.
7:39 AM 5:14 PM
Waxing Crescent, 31% visible
METAR EGOM 131350Z AUTO 06008KT 3000 SHRA BKN003/// BKN013/// 01/01 Q0990
Pressure 29.24 in
Visibility 1.9 miles
Clouds Mostly Cloudy 300 ft
Mostly Cloudy 1300 ft
Windchill 41 °F
Dew Point 32 °F
Humidity 71%
Rainfall 0.00 in
Snow Depth Not available.
7:39 AM 5:14 PM
Waxing Crescent, 31% visible
METAR EGOM 131350Z AUTO 06008KT 3000 SHRA BKN003/// BKN013/// 01/01 Q0990

10-Day Weather Forecast

Almanac

Astronomy

Feb. 13, 2016 Rise Set
Actual Time
Civil Twilight
Nautical Twilight
Astronomical Twilight
Moon
Length of Visible Light
Length of Day
Tomorrow will be .
, % of the Moon is Illuminated

Today's Extremes

Country Highs Country Lows

Community

WunderPhotos

Upload Photos

1,892,558 photos uploaded!

WunderBlog® & News

Nearby

Air Quality

  Air Quality AQ Index Pollutant
Not available.

Snow Depth

Station Depth Elevation

Earthquake Activity

City Distance Mag. Time & Date
Minimum magnitude displayed is 2.5.

Coastal Water Temperatures

Place Temperature

Stations

Nearby Weather Stations

Station Location Temp. Windchill Dew Point Humidity Wind Precip. Elev Updated Type